Time;durP1;ratioP1;P1;durP2;ratioP2;P2;SDS_P1;SDS_P2;PMS_P1;PMS_P2;Temp;Humidity;BMP_temperature;BMP_pressure;BME280_temperature;BME280_humidity;BME280_pressure;Samples;Min_cycle;Max_cycle;Signal;HPM_P1;HPM_P2
2023/03/21 00:00:47;;;;;;;5.60;3.33;;;11.20;99.90;;;;;;5072901;28;20499;-70
2023/03/21 00:03:14;;;;;;;10.93;3.87;;;11.20;99.90;;;;;;5071681;28;20471;-70
2023/03/21 00:05:41;;;;;;;5.40;3.10;;;11.20;99.90;;;;;;5054275;28;20409;-70
2023/03/21 00:08:07;;;;;;;10.07;3.90;;;11.30;99.90;;;;;;5052496;28;20463;-70
2023/03/21 00:10:32;;;;;;;2.60;2.40;;;11.30;99.90;;;;;;5052690;28;20413;-71
2023/03/21 00:12:58;;;;;;;6.10;3.73;;;11.30;99.90;;;;;;5051156;28;20283;-71
2023/03/21 00:15:28;;;;;;;5.37;3.13;;;11.30;99.90;;;;;;5052771;28;20175;-72
2023/03/21 00:18:02;;;;;;;7.03;3.43;;;11.30;99.90;;;;;;5051874;28;20249;-70
2023/03/21 00:20:33;;;;;;;4.67;3.87;;;11.30;99.90;;;;;;5052631;28;20808;-70
2023/03/21 00:23:00;;;;;;;5.13;3.30;;;11.30;99.90;;;;;;5052477;28;20490;-71
2023/03/21 00:25:26;;;;;;;6.93;3.40;;;11.30;99.90;;;;;;5052400;28;20486;-72
2023/03/21 00:27:52;;;;;;;6.13;3.17;;;11.30;99.90;;;;;;5052156;28;20496;-72
2023/03/21 00:30:17;;;;;;;9.83;3.50;;;11.30;99.90;;;;;;5052386;28;20496;-70
2023/03/21 00:32:44;;;;;;;7.70;3.50;;;11.20;99.90;;;;;;5052224;28;20194;-70
2023/03/21 00:35:10;;;;;;;5.43;4.53;;;11.30;99.90;;;;;;5052254;28;20169;-70
2023/03/21 00:37:36;;;;;;;4.00;3.03;;;11.20;99.90;;;;;;5051910;28;20405;-71
2023/03/21 00:40:01;;;;;;;7.47;3.43;;;11.20;99.90;;;;;;5052148;28;20170;-71
2023/03/21 00:42:27;;;;;;;3.40;2.80;;;11.20;99.90;;;;;;5052125;28;20221;-71
2023/03/21 00:44:52;;;;;;;5.17;3.43;;;11.20;99.90;;;;;;5052249;28;20587;-70
2023/03/21 00:47:18;;;;;;;4.63;3.30;;;11.20;99.90;;;;;;5051685;28;20167;-70
2023/03/21 00:49:43;;;;;;;4.03;3.47;;;11.20;99.90;;;;;;5052040;28;20175;-71
2023/03/21 00:52:09;;;;;;;4.33;3.33;;;11.20;99.90;;;;;;5051939;28;20194;-70
2023/03/21 00:54:35;;;;;;;7.33;3.67;;;11.20;99.90;;;;;;5051982;28;20211;-71
2023/03/21 00:57:02;;;;;;;4.00;3.60;;;11.20;99.90;;;;;;5051585;28;20763;-70
2023/03/21 00:59:28;;;;;;;6.77;3.67;;;11.20;99.90;;;;;;5051853;28;20461;-70
2023/03/21 01:01:54;;;;;;;6.37;3.80;;;11.20;99.90;;;;;;5051794;28;20994;-70
2023/03/21 01:04:25;;;;;;;4.53;3.43;;;11.20;99.90;;;;;;5049522;28;20651;-70
2023/03/21 01:06:52;;;;;;;6.73;2.90;;;11.20;99.90;;;;;;5065218;28;20166;-70
2023/03/21 01:09:22;;;;;;;5.63;3.13;;;11.20;99.90;;;;;;5071913;28;20408;-71
2023/03/21 01:11:49;;;;;;;7.07;3.43;;;11.20;99.90;;;;;;5071902;28;20913;-70
2023/03/21 01:14:17;;;;;;;9.53;3.70;;;11.20;99.90;;;;;;5071727;28;20471;-70
2023/03/21 01:16:43;;;;;;;7.40;3.53;;;11.20;99.90;;;;;;5071593;28;20413;-70
2023/03/21 01:19:12;;;;;;;4.03;2.83;;;11.30;99.90;;;;;;5071486;28;20459;-70
2023/03/21 01:21:38;;;;;;;5.50;3.30;;;11.30;99.90;;;;;;5070291;28;20781;-71
2023/03/21 01:24:04;;;;;;;4.40;3.13;;;11.30;99.90;;;;;;5071813;28;20413;-71
2023/03/21 01:26:30;;;;;;;5.30;4.13;;;11.30;99.90;;;;;;5071659;28;20440;-71
2023/03/21 01:28:56;;;;;;;3.80;3.00;;;11.30;99.90;;;;;;5071089;28;20490;-71
2023/03/21 01:31:21;;;;;;;8.03;3.43;;;11.40;99.90;;;;;;5074682;28;20189;-71
2023/03/21 01:33:47;;;;;;;6.60;3.20;;;11.40;99.90;;;;;;5075643;28;20186;-71
2023/03/21 01:36:16;;;;;;;8.27;3.97;;;11.40;99.90;;;;;;5075587;28;20217;-70
2023/03/21 01:38:43;;;;;;;6.83;4.00;;;11.30;99.90;;;;;;5075238;28;20225;-71
2023/03/21 01:41:23;;;;;;;6.60;3.80;;;11.30;99.90;;;;;;5075611;28;20404;-71
2023/03/21 01:43:49;;;;;;;5.93;2.93;;;11.30;99.90;;;;;;5075539;28;20432;-70
2023/03/21 01:46:27;;;;;;;4.57;3.70;;;11.20;99.90;;;;;;5075562;28;20432;-70
2023/03/21 01:49:02;;;;;;;5.80;3.47;;;11.20;99.90;;;;;;5075100;28;20170;-70
2023/03/21 01:51:31;;;;;;;5.10;3.40;;;11.10;99.90;;;;;;5075322;28;20815;-70
2023/03/21 01:53:57;;;;;;;5.33;2.90;;;11.20;99.90;;;;;;5075253;28;20436;-71
2023/03/21 01:56:30;;;;;;;6.10;4.10;;;11.20;99.90;;;;;;5075252;28;20450;-72
2023/03/21 01:59:05;;;;;;;11.30;4.33;;;11.20;99.90;;;;;;5074819;28;20189;-70
2023/03/21 02:01:33;;;;;;;4.60;3.57;;;11.20;99.90;;;;;;5074971;28;20396;-71
2023/03/21 02:04:02;;;;;;;4.50;3.40;;;11.20;99.90;;;;;;5069207;28;20782;-71
2023/03/21 02:06:31;;;;;;;9.63;4.87;;;11.10;99.90;;;;;;5055110;28;20559;-70
2023/03/21 02:09:03;;;;;;;5.80;3.50;;;11.00;99.90;;;;;;5054756;28;20420;-70
2023/03/21 02:11:29;;;;;;;7.03;3.80;;;10.90;99.90;;;;;;5053675;28;20444;-70
2023/03/21 02:13:55;;;;;;;4.03;3.40;;;10.90;99.90;;;;;;5054742;28;20952;-71
2023/03/21 02:16:36;;;;;;;6.67;4.33;;;10.80;99.90;;;;;;5062959;28;20452;-70
2023/03/21 02:19:37;;;;;;;4.43;3.87;;;10.90;99.90;;;;;;5055272;28;20671;-71
2023/03/21 02:22:36;;;;;;;7.57;3.43;;;10.90;99.90;;;;;;5054601;28;20424;-70
2023/03/21 02:25:24;;;;;;;6.40;4.30;;;10.80;99.90;;;;;;5054732;28;20394;-71
2023/03/21 02:27:58;;;;;;;4.53;3.87;;;10.80;99.90;;;;;;5054426;28;20401;-71
2023/03/21 02:30:43;;;;;;;5.73;3.40;;;10.80;99.90;;;;;;5054568;28;20490;-71
2023/03/21 02:33:18;;;;;;;8.00;4.53;;;10.80;99.90;;;;;;5054482;28;20436;-70
2023/03/21 02:35:43;;;;;;;7.27;4.10;;;10.70;99.90;;;;;;5054529;28;20408;-72
2023/03/21 02:38:17;;;;;;;6.83;4.50;;;10.80;99.90;;;;;;5054083;28;20456;-70
2023/03/21 02:40:58;;;;;;;8.00;3.50;;;10.80;99.90;;;;;;5054270;28;20644;-70
2023/03/21 02:43:37;;;;;;;11.83;4.03;;;10.80;99.90;;;;;;5054386;28;20471;-70
2023/03/21 02:46:09;;;;;;;9.50;5.30;;;10.80;99.90;;;;;;5054354;28;20486;-70
2023/03/21 02:48:55;;;;;;;15.10;9.10;;;10.90;99.90;;;;;;5053934;28;20405;-71
2023/03/21 02:51:23;;;;;;;7.57;4.63;;;10.90;99.90;;;;;;5054220;28;20421;-70
2023/03/21 02:54:01;;;;;;;10.53;3.43;;;10.90;99.90;;;;;;5054157;28;20416;-72
2023/03/21 02:56:27;;;;;;;5.90;4.00;;;11.00;99.90;;;;;;5054117;28;20502;-70
2023/03/21 02:58:53;;;;;;;7.87;3.80;;;11.00;99.90;;;;;;5053709;28;20555;-70
2023/03/21 03:01:19;;;;;;;9.87;4.97;;;11.00;99.90;;;;;;5054054;28;20456;-71
2023/03/21 03:03:46;;;;;;;6.63;4.67;;;11.00;99.90;;;;;;5051197;28;20183;-70
2023/03/21 03:06:27;;;;;;;6.50;3.77;;;11.00;99.90;;;;;;5034008;28;20420;-70
2023/03/21 03:09:30;;;;;;;4.30;3.87;;;11.00;99.90;;;;;;5033721;28;20414;-70
2023/03/21 03:12:23;;;;;;;4.47;4.07;;;10.90;99.90;;;;;;5033909;28;20795;-70
2023/03/21 03:15:20;;;;;;;4.13;3.37;;;10.90;99.90;;;;;;5033698;28;20523;-71
2023/03/21 03:18:10;;;;;;;10.73;5.10;;;10.80;99.90;;;;;;5033352;28;20783;-70
2023/03/21 03:20:59;;;;;;;6.17;4.17;;;10.70;99.90;;;;;;5030560;28;20410;-70
2023/03/21 03:23:50;;;;;;;6.40;4.27;;;10.50;99.90;;;;;;5032461;28;20834;-72
2023/03/21 03:26:18;;;;;;;10.27;5.27;;;10.50;99.90;;;;;;5034699;28;20413;-70
2023/03/21 03:28:57;;;;;;;6.13;4.50;;;10.50;99.90;;;;;;5061112;28;20413;-71
2023/03/21 03:31:33;;;;;;;8.00;3.97;;;10.50;99.90;;;;;;5073376;28;20971;-71
2023/03/21 03:34:05;;;;;;;6.30;4.50;;;10.50;99.90;;;;;;5073479;28;20404;-71
2023/03/21 03:36:38;;;;;;;5.93;3.67;;;10.40;99.90;;;;;;5073514;28;20495;-71
2023/03/21 03:39:09;;;;;;;8.70;4.73;;;10.40;99.90;;;;;;5073022;28;20839;-70
2023/03/21 03:41:44;;;;;;;7.80;4.53;;;10.30;99.90;;;;;;5073188;28;20943;-71
2023/03/21 03:44:10;;;;;;;5.30;4.30;;;10.30;99.90;;;;;;5073328;28;20453;-71
2023/03/21 03:46:43;;;;;;;5.17;4.40;;;10.10;99.90;;;;;;5073110;28;20412;-71
2023/03/21 03:49:14;;;;;;;7.60;5.30;;;10.20;99.90;;;;;;5072886;28;20769;-70
2023/03/21 03:51:51;;;;;;;8.57;4.90;;;10.20;99.90;;;;;;5072868;28;20408;-71
2023/03/21 03:54:22;;;;;;;7.37;5.33;;;10.20;99.90;;;;;;5072435;28;20799;-70
2023/03/21 03:56:48;;;;;;;7.70;4.70;;;10.20;99.90;;;;;;5072804;28;20400;-71
2023/03/21 03:59:26;;;;;;;5.60;3.77;;;10.20;99.90;;;;;;5071428;28;20459;-70
2023/03/21 04:01:52;;;;;;;6.70;4.30;;;10.30;99.90;;;;;;5072562;28;20832;-72
2023/03/21 04:04:17;;;;;;;6.57;3.73;;;10.30;99.90;;;;;;5065611;28;20413;-70
2023/03/21 04:06:50;;;;;;;5.63;4.13;;;10.30;99.90;;;;;;5052722;28;20249;-70
2023/03/21 04:09:17;;;;;;;7.20;4.90;;;10.30;99.90;;;;;;5052514;28;20162;-70
2023/03/21 04:11:43;;;;;;;5.60;4.33;;;10.30;99.90;;;;;;5052608;28;21134;-70
2023/03/21 04:14:08;;;;;;;6.00;4.17;;;10.30;99.90;;;;;;5052604;28;20475;-71
2023/03/21 04:16:34;;;;;;;9.90;5.70;;;10.30;99.90;;;;;;5052578;28;20474;-71
2023/03/21 04:19:00;;;;;;;7.57;4.23;;;10.20;99.90;;;;;;5052116;28;20198;-71
2023/03/21 04:21:26;;;;;;;8.93;4.90;;;10.30;99.90;;;;;;5052462;28;20205;-70
2023/03/21 04:23:53;;;;;;;10.70;4.20;;;10.30;99.90;;;;;;5052498;28;20162;-71
2023/03/21 04:26:22;;;;;;;10.83;4.77;;;10.30;99.90;;;;;;5051173;28;20504;-70
2023/03/21 04:28:49;;;;;;;8.13;3.63;;;10.30;99.90;;;;;;5052106;28;20409;-70
2023/03/21 04:31:16;;;;;;;5.60;3.40;;;10.40;99.90;;;;;;5052374;28;20431;-70
2023/03/21 04:33:42;;;;;;;8.10;4.47;;;10.40;99.90;;;;;;5052218;28;20421;-71
2023/03/21 04:36:08;;;;;;;4.27;3.70;;;10.30;99.90;;;;;;5050982;28;20417;-70
2023/03/21 04:38:35;;;;;;;6.83;4.03;;;10.40;99.90;;;;;;5054840;28;20457;-70
2023/03/21 04:41:01;;;;;;;6.60;3.77;;;10.40;99.90;;;;;;5059979;28;20454;-70
2023/03/21 04:43:27;;;;;;;7.53;4.10;;;10.50;99.90;;;;;;5052173;28;20425;-70
2023/03/21 04:45:53;;;;;;;4.73;3.60;;;10.50;99.90;;;;;;5052086;28;20404;-70
2023/03/21 04:48:23;;;;;;;9.37;3.53;;;10.60;99.90;;;;;;5050505;28;20421;-72
2023/03/21 04:50:49;;;;;;;4.50;3.83;;;10.50;99.90;;;;;;5052035;28;20402;-70
2023/03/21 04:53:15;;;;;;;7.03;3.40;;;10.60;99.90;;;;;;5052011;28;20433;-70
2023/03/21 04:55:40;;;;;;;5.83;4.47;;;10.60;99.90;;;;;;5051935;28;20413;-70
2023/03/21 04:58:06;;;;;;;5.40;3.47;;;10.60;99.90;;;;;;5051599;28;20206;-71
2023/03/21 05:00:36;;;;;;;9.63;3.70;;;10.60;99.90;;;;;;5050574;28;20206;-70
2023/03/21 05:03:03;;;;;;;5.80;3.77;;;10.60;99.90;;;;;;5051892;28;20660;-71
2023/03/21 05:05:30;;;;;;;6.10;3.70;;;10.70;99.90;;;;;;5034861;28;20449;-70
2023/03/21 05:07:56;;;;;;;5.67;4.50;;;10.60;99.90;;;;;;5031680;28;20441;-71
2023/03/21 05:10:21;;;;;;;7.30;3.30;;;10.60;99.90;;;;;;5031891;28;20830;-71
2023/03/21 05:12:47;;;;;;;4.90;3.60;;;10.70;99.90;;;;;;5031707;28;20684;-70
2023/03/21 05:15:13;;;;;;;7.70;3.03;;;10.70;99.90;;;;;;5031858;28;20167;-70
2023/03/21 05:17:41;;;;;;;8.57;3.90;;;10.80;99.90;;;;;;5031519;28;20627;-71
2023/03/21 05:20:10;;;;;;;5.57;3.50;;;10.80;99.90;;;;;;5031900;28;20405;-70
2023/03/21 05:22:39;;;;;;;4.70;3.43;;;10.80;99.90;;;;;;5032077;28;20923;-70
2023/03/21 05:25:07;;;;;;;8.50;3.93;;;10.70;99.90;;;;;;5031747;28;20770;-71
2023/03/21 05:27:33;;;;;;;4.23;3.50;;;10.70;99.90;;;;;;5031435;28;20430;-70
2023/03/21 05:30:03;;;;;;;9.73;4.37;;;10.70;99.90;;;;;;5031667;28;20409;-70
2023/03/21 05:32:29;;;;;;;8.03;4.03;;;10.70;99.90;;;;;;5030661;28;20796;-71
2023/03/21 05:34:55;;;;;;;5.23;3.40;;;10.70;99.90;;;;;;5031758;28;20436;-72
2023/03/21 05:37:20;;;;;;;5.87;3.90;;;10.80;99.90;;;;;;5031501;28;20180;-72
2023/03/21 05:39:46;;;;;;;6.93;3.60;;;10.80;99.90;;;;;;5031820;28;20464;-71
2023/03/21 05:42:11;;;;;;;13.37;4.67;;;10.90;99.90;;;;;;5031556;28;20195;-71
2023/03/21 05:44:39;;;;;;;7.07;3.93;;;10.80;99.90;;;;;;5031667;28;20175;-71
2023/03/21 05:47:05;;;;;;;5.10;3.23;;;10.80;99.90;;;;;;5042818;28;20177;-72
2023/03/21 05:49:31;;;;;;;10.80;4.13;;;10.80;99.90;;;;;;5062477;28;20503;-72
2023/03/21 05:51:56;;;;;;;7.17;4.30;;;10.80;99.90;;;;;;5071444;28;20839;-71
2023/03/21 05:54:22;;;;;;;7.47;3.73;;;10.80;99.90;;;;;;5071771;28;20634;-71
2023/03/21 05:56:48;;;;;;;9.23;4.23;;;10.90;99.90;;;;;;5071327;28;20175;-71
2023/03/21 05:59:13;;;;;;;7.07;3.80;;;11.00;99.90;;;;;;5071167;28;20233;-71
2023/03/21 06:01:39;;;;;;;13.43;3.50;;;10.90;99.90;;;;;;5071387;28;20588;-71
2023/03/21 06:04:04;;;;;;;3.63;3.30;;;11.00;99.90;;;;;;5065970;28;20840;-71
2023/03/21 06:06:30;;;;;;;7.00;4.43;;;10.90;99.90;;;;;;5050077;28;20173;-71
2023/03/21 06:08:55;;;;;;;7.63;3.30;;;11.00;99.90;;;;;;5050976;28;20266;-71
2023/03/21 06:11:30;;;;;;;7.73;3.80;;;11.00;99.90;;;;;;5051243;28;20175;-72
2023/03/21 06:13:55;;;;;;;11.20;3.97;;;11.00;99.90;;;;;;5051065;28;20215;-71
2023/03/21 06:16:21;;;;;;;5.67;3.50;;;11.00;99.90;;;;;;5052445;28;20421;-71
2023/03/21 06:18:47;;;;;;;8.23;3.73;;;10.90;99.90;;;;;;5054605;28;20195;-71
2023/03/21 06:21:12;;;;;;;6.57;3.90;;;11.00;99.90;;;;;;5054814;28;20224;-71
2023/03/21 06:23:38;;;;;;;6.60;3.97;;;10.90;99.90;;;;;;5053327;28;20191;-71
2023/03/21 06:26:04;;;;;;;13.10;5.17;;;10.90;99.90;;;;;;5053339;28;20185;-72
2023/03/21 06:28:30;;;;;;;5.50;3.87;;;10.90;99.90;;;;;;5054395;28;20178;-71
2023/03/21 06:30:56;;;;;;;10.27;4.60;;;10.90;99.90;;;;;;5054543;28;20409;-71
2023/03/21 06:33:22;;;;;;;4.37;2.80;;;10.80;99.90;;;;;;5054566;28;20936;-71
2023/03/21 06:35:55;;;;;;;4.77;3.43;;;10.90;99.90;;;;;;5054862;28;20175;-71
2023/03/21 06:38:21;;;;;;;6.90;4.13;;;10.90;99.90;;;;;;5054120;28;20209;-71
2023/03/21 06:40:47;;;;;;;11.90;4.50;;;10.90;99.90;;;;;;5053147;28;20496;-71
2023/03/21 06:43:15;;;;;;;4.93;4.40;;;10.90;99.90;;;;;;5054437;28;20187;-71
2023/03/21 06:45:40;;;;;;;6.83;3.60;;;10.90;99.90;;;;;;5054380;28;20437;-72
2023/03/21 06:48:06;;;;;;;4.03;3.27;;;10.90;99.90;;;;;;5054015;28;20448;-72
2023/03/21 06:50:32;;;;;;;7.40;4.33;;;10.90;99.90;;;;;;5054258;28;20414;-71
2023/03/21 06:52:58;;;;;;;12.70;5.60;;;10.90;99.90;;;;;;5056307;28;20209;-71
2023/03/21 06:55:25;;;;;;;11.87;5.60;;;10.80;99.90;;;;;;5064041;28;20224;-71
2023/03/21 06:57:52;;;;;;;7.73;3.50;;;10.70;99.90;;;;;;5053698;28;20409;-71
2023/03/21 07:00:18;;;;;;;6.43;4.47;;;10.70;99.90;;;;;;5054099;28;20409;-71
2023/03/21 07:02:45;;;;;;;6.30;3.77;;;10.80;99.90;;;;;;5052737;28;20445;-71
2023/03/21 07:05:11;;;;;;;6.23;4.37;;;10.80;99.90;;;;;;5039501;28;20406;-72
2023/03/21 07:07:37;;;;;;;6.70;3.70;;;10.80;99.90;;;;;;5033643;28;20908;-71
2023/03/21 07:10:03;;;;;;;7.80;4.90;;;10.80;99.90;;;;;;5032651;28;20179;-71
2023/03/21 07:12:32;;;;;;;6.90;4.77;;;10.90;99.90;;;;;;5033873;28;20437;-71
2023/03/21 07:15:03;;;;;;;4.20;3.80;;;10.70;99.90;;;;;;5033750;28;20841;-71
2023/03/21 07:17:29;;;;;;;5.87;4.67;;;10.80;99.90;;;;;;5033614;28;20428;-71
2023/03/21 07:19:54;;;;;;;11.03;4.80;;;10.90;99.90;;;;;;5033680;28;20496;-71
2023/03/21 07:22:20;;;;;;;9.33;5.23;;;11.00;99.90;;;;;;5033622;28;20466;-71
2023/03/21 07:24:49;;;;;;;8.07;5.30;;;10.90;99.90;;;;;;5032705;28;20171;-71
2023/03/21 07:27:15;;;;;;;5.20;4.30;;;11.00;99.90;;;;;;5032679;28;20167;-71
2023/03/21 07:29:42;;;;;;;9.57;4.10;;;11.00;99.90;;;;;;5033319;28;20497;-71
2023/03/21 07:32:09;;;;;;;13.33;5.40;;;11.10;99.90;;;;;;5033477;28;20437;-70
2023/03/21 07:34:34;;;;;;;7.30;5.13;;;11.10;99.90;;;;;;5033438;28;20818;-70
2023/03/21 07:37:00;;;;;;;6.37;4.70;;;11.20;99.90;;;;;;5031842;28;20422;-70
2023/03/21 07:39:26;;;;;;;8.50;5.43;;;11.20;99.90;;;;;;5033330;28;20203;-74
2023/03/21 07:41:54;;;;;;;7.90;4.67;;;11.20;99.90;;;;;;5033435;28;20261;-71
2023/03/21 07:44:23;;;;;;;10.23;5.23;;;11.20;99.90;;;;;;5033539;28;20844;-71
2023/03/21 07:46:49;;;;;;;6.33;4.17;;;11.10;99.90;;;;;;5033162;28;20430;-73
2023/03/21 07:49:14;;;;;;;11.63;5.50;;;11.20;99.90;;;;;;5032967;28;20445;-71
2023/03/21 07:51:40;;;;;;;6.33;4.60;;;11.10;99.90;;;;;;5033054;28;20536;-71
2023/03/21 07:54:05;;;;;;;15.73;4.77;;;11.10;99.90;;;;;;5033074;28;20221;-71
2023/03/21 07:56:31;;;;;;;8.37;4.63;;;11.10;99.90;;;;;;5033130;28;20175;-71
2023/03/21 07:58:58;;;;;;;8.40;4.60;;;11.10;99.90;;;;;;5032777;28;20675;-71
2023/03/21 08:01:24;;;;;;;6.00;3.90;;;11.10;99.90;;;;;;5033060;28;20190;-71
2023/03/21 08:03:52;;;;;;;8.93;3.93;;;11.00;99.90;;;;;;5035224;28;20421;-73
2023/03/21 08:06:18;;;;;;;9.47;4.80;;;11.00;99.90;;;;;;5060201;28;20509;-73
2023/03/21 08:08:45;;;;;;;11.60;3.90;;;11.10;99.90;;;;;;5052473;28;20444;-73
2023/03/21 08:11:10;;;;;;;9.80;5.00;;;11.20;99.90;;;;;;5052699;28;20409;-74
2023/03/21 08:13:36;;;;;;;5.63;3.90;;;11.20;99.90;;;;;;5052541;28;20460;-74
2023/03/21 08:16:01;;;;;;;7.17;4.87;;;11.20;99.90;;;;;;5052585;28;20210;-74
2023/03/21 08:18:27;;;;;;;11.70;5.90;;;11.20;99.90;;;;;;5052148;28;20233;-74
2023/03/21 08:20:54;;;;;;;7.53;5.30;;;11.30;99.90;;;;;;5052504;28;20250;-73
2023/03/21 08:23:20;;;;;;;10.67;4.93;;;11.30;99.90;;;;;;5052432;28;20179;-72
2023/03/21 08:25:49;;;;;;;14.27;5.57;;;11.20;99.90;;;;;;5051204;28;20475;-72
2023/03/21 08:28:15;;;;;;;6.40;4.60;;;11.20;99.90;;;;;;5052082;28;20504;-71
2023/03/21 08:30:41;;;;;;;12.20;4.10;;;11.20;99.90;;;;;;5052021;28;20436;-72
2023/03/21 08:33:06;;;;;;;6.83;4.97;;;11.20;99.90;;;;;;5052218;28;20217;-72
2023/03/21 08:35:32;;;;;;;6.70;5.07;;;11.20;99.90;;;;;;5052193;28;20177;-72
2023/03/21 08:37:57;;;;;;;6.57;4.90;;;11.30;99.90;;;;;;5051921;28;20645;-73
2023/03/21 08:40:23;;;;;;;7.70;5.43;;;11.40;99.90;;;;;;5051994;28;20173;-72
2023/03/21 08:42:48;;;;;;;12.63;5.40;;;11.40;99.90;;;;;;5052070;28;20183;-73
2023/03/21 08:45:15;;;;;;;7.13;4.27;;;11.40;99.90;;;;;;5052154;28;20163;-72
2023/03/21 08:47:41;;;;;;;7.03;4.87;;;11.30;99.90;;;;;;5051924;28;20193;-72
2023/03/21 08:50:10;;;;;;;5.63;4.00;;;11.30;99.90;;;;;;5052055;28;20397;-73
2023/03/21 08:52:36;;;;;;;11.83;5.30;;;11.30;99.90;;;;;;5052031;28;20433;-73
2023/03/21 08:55:02;;;;;;;8.83;4.57;;;11.20;99.90;;;;;;5052089;28;20402;-72
2023/03/21 08:57:28;;;;;;;7.00;4.17;;;11.20;99.90;;;;;;5051730;28;20163;-73
2023/03/21 08:59:54;;;;;;;5.47;4.00;;;11.30;99.90;;;;;;5051895;28;20817;-73
2023/03/21 09:02:20;;;;;;;10.43;4.50;;;11.30;99.90;;;;;;5051497;28;20421;-73
2023/03/21 09:04:46;;;;;;;5.27;3.70;;;11.40;99.90;;;;;;5040864;28;20246;-73
2023/03/21 09:07:13;;;;;;;18.00;3.77;;;11.30;99.90;;;;;;5031666;28;20294;-72
2023/03/21 09:09:40;;;;;;;5.33;3.83;;;11.30;99.90;;;;;;5031998;28;20409;-72
2023/03/21 09:12:06;;;;;;;12.13;3.60;;;11.40;99.90;;;;;;5031829;28;20487;-72
2023/03/21 09:14:33;;;;;;;4.57;4.10;;;11.40;99.90;;;;;;5031792;28;21090;-74
2023/03/21 09:16:59;;;;;;;11.37;4.73;;;11.50;99.90;;;;;;5057491;28;20170;-72
2023/03/21 09:19:25;;;;;;;6.70;4.37;;;11.70;99.90;;;;;;5053015;28;20460;-73
2023/03/21 09:21:52;;;;;;;5.70;3.97;;;11.90;99.90;;;;;;5050500;28;20219;-73
2023/03/21 09:24:19;;;;;;;9.53;4.90;;;12.10;99.90;;;;;;5050416;28;20405;-73
2023/03/21 09:26:45;;;;;;;5.40;4.27;;;12.30;99.90;;;;;;5051665;28;20424;-74
2023/03/21 09:29:11;;;;;;;7.73;5.13;;;12.50;99.90;;;;;;5051472;28;20397;-73
2023/03/21 09:31:38;;;;;;;7.47;5.53;;;12.60;99.90;;;;;;5050298;28;20910;-73
2023/03/21 09:34:04;;;;;;;7.83;4.77;;;12.60;99.90;;;;;;5051645;28;20159;-73
2023/03/21 09:36:33;;;;;;;16.10;4.77;;;12.60;99.90;;;;;;5051646;28;20415;-76
2023/03/21 09:38:59;;;;;;;6.83;4.97;;;12.40;99.90;;;;;;5051054;28;20278;-74
2023/03/21 09:41:42;;;;;;;7.83;5.30;;;12.20;99.90;;;;;;5051405;28;20492;-75
2023/03/21 09:44:27;;;;;;;5.23;4.03;;;12.20;99.90;;;;;;5051598;28;20147;-72
2023/03/21 09:47:05;;;;;;;7.13;4.53;;;12.20;99.90;;;;;;5051336;28;20813;-73
2023/03/21 09:49:37;;;;;;;5.30;4.80;;;12.30;99.90;;;;;;5051599;28;20798;-73
2023/03/21 09:52:18;;;;;;;10.20;6.10;;;12.20;99.90;;;;;;5053975;28;20421;-73
2023/03/21 09:54:44;;;;;;;17.37;5.43;;;12.20;99.90;;;;;;5055424;28;20508;-73
2023/03/21 09:57:36;;;;;;;11.60;5.20;;;12.20;99.90;;;;;;5055008;28;20488;-72
2023/03/21 10:00:13;;;;;;;8.77;5.80;;;12.20;99.90;;;;;;5055212;28;20275;-72
2023/03/21 10:02:50;;;;;;;9.90;5.80;;;12.30;99.90;;;;;;5055094;28;20937;-71
2023/03/21 10:05:17;;;;;;;9.50;5.63;;;12.30;99.90;;;;;;5039910;28;20790;-71
2023/03/21 10:07:58;;;;;;;7.80;4.70;;;12.40;99.90;;;;;;5034854;28;20490;-71
2023/03/21 10:10:28;;;;;;;6.00;4.80;;;12.30;99.90;;;;;;5035091;28;20907;-72
2023/03/21 10:12:55;;;;;;;8.67;3.77;;;12.30;99.90;;;;;;5033549;28;20525;-72
2023/03/21 10:15:23;;;;;;;6.97;3.60;;;12.30;99.90;;;;;;5035011;28;20394;-72
2023/03/21 10:17:58;;;;;;;5.50;3.83;;;12.30;99.90;;;;;;5034556;28;20406;-72
2023/03/21 10:20:30;;;;;;;6.60;4.50;;;12.40;99.90;;;;;;5034945;28;20410;-72
2023/03/21 10:22:59;;;;;;;6.70;4.00;;;12.40;99.90;;;;;;5034779;28;20426;-72
2023/03/21 10:25:34;;;;;;;9.40;5.00;;;12.50;99.90;;;;;;5033511;28;20442;-72
2023/03/21 10:28:01;;;;;;;8.80;4.93;;;12.50;99.90;;;;;;5048254;28;20516;-73
2023/03/21 10:30:43;;;;;;;8.13;4.40;;;12.60;99.90;;;;;;5069282;28;20918;-72
2023/03/21 10:33:20;;;;;;;12.50;7.10;;;12.60;99.90;;;;;;5074755;28;20432;-72
2023/03/21 10:35:54;;;;;;;5.43;4.37;;;12.70;99.90;;;;;;5074522;28;20438;-73
2023/03/21 10:38:22;;;;;;;8.73;4.30;;;12.80;99.90;;;;;;5074198;28;20475;-72
2023/03/21 10:40:48;;;;;;;8.50;4.60;;;13.00;99.90;;;;;;5073125;28;20413;-72
2023/03/21 10:43:19;;;;;;;7.13;4.70;;;13.10;99.90;;;;;;5074300;28;20553;-72
2023/03/21 10:45:46;;;;;;;7.40;4.67;;;13.50;99.90;;;;;;5074452;28;20594;-74
2023/03/21 10:48:12;;;;;;;7.10;4.30;;;13.80;99.90;;;;;;5073971;28;20404;-73
2023/03/21 10:50:37;;;;;;;5.30;3.73;;;13.90;99.90;;;;;;5074198;28;20412;-72
2023/03/21 10:53:17;;;;;;;7.33;4.47;;;13.80;99.90;;;;;;5072858;28;20190;-72
2023/03/21 10:55:47;;;;;;;6.80;4.00;;;13.60;99.90;;;;;;5074205;28;20253;-73
2023/03/21 10:58:17;;;;;;;6.90;4.07;;;13.40;99.90;;;;;;5073758;28;20547;-72
2023/03/21 11:00:45;;;;;;;12.03;4.50;;;13.20;99.90;;;;;;5074162;28;20411;-72
2023/03/21 11:03:30;;;;;;;7.83;4.03;;;13.20;99.90;;;;;;5073732;28;20462;-71
2023/03/21 11:06:00;;;;;;;3.90;3.33;;;13.10;99.90;;;;;;5034064;28;20411;-72
2023/03/21 11:08:26;;;;;;;6.43;3.47;;;13.10;99.90;;;;;;5033565;28;20403;-72
2023/03/21 11:11:02;;;;;;;8.00;3.93;;;13.10;99.90;;;;;;5033945;28;20417;-72
2023/03/21 11:13:40;;;;;;;5.67;4.20;;;13.20;99.90;;;;;;5032398;28;20457;-71
2023/03/21 11:16:24;;;;;;;4.57;3.83;;;13.30;99.90;;;;;;5033946;28;20827;-72
2023/03/21 11:18:51;;;;;;;6.40;4.10;;;13.40;99.90;;;;;;5033479;28;20456;-73
2023/03/21 11:21:18;;;;;;;6.77;4.40;;;13.40;99.90;;;;;;5033884;28;20483;-72
2023/03/21 11:23:47;;;;;;;11.53;4.43;;;13.40;99.90;;;;;;5033536;28;20429;-72
2023/03/21 11:26:23;;;;;;;5.53;3.80;;;13.40;99.90;;;;;;5033719;28;20735;-73
2023/03/21 11:28:52;;;;;;;8.17;4.70;;;13.40;99.90;;;;;;5033432;28;20406;-73
2023/03/21 11:31:18;;;;;;;7.17;4.80;;;13.30;99.90;;;;;;5033917;28;20951;-72
2023/03/21 11:33:52;;;;;;;6.90;4.60;;;13.20;99.90;;;;;;5041969;28;20424;-72
2023/03/21 11:36:17;;;;;;;7.10;4.80;;;13.10;99.90;;;;;;5051439;28;20625;-73
2023/03/21 11:38:48;;;;;;;7.63;4.63;;;13.00;99.90;;;;;;5073006;28;20510;-73
2023/03/21 11:41:46;;;;;;;9.50;5.53;;;13.00;99.90;;;;;;5073431;28;20147;-72
2023/03/21 11:44:44;;;;;;;15.53;4.60;;;12.90;99.90;;;;;;5068948;28;20419;-72
2023/03/21 11:47:10;;;;;;;8.47;3.97;;;12.80;99.90;;;;;;5060668;28;20456;-72
2023/03/21 11:49:36;;;;;;;7.33;5.50;;;12.70;99.90;;;;;;5072053;28;20889;-72
2023/03/21 11:52:30;;;;;;;7.97;4.90;;;12.70;99.90;;;;;;5072979;28;20460;-72
2023/03/21 11:55:08;;;;;;;6.93;4.70;;;12.50;99.90;;;;;;5073303;28;20720;-72
2023/03/21 11:57:39;;;;;;;6.90;5.10;;;12.30;99.90;;;;;;5072630;28;20889;-72
2023/03/21 12:00:21;;;;;;;8.80;5.30;;;12.30;99.90;;;;;;5072820;28;20491;-72
2023/03/21 12:02:55;;;;;;;6.40;4.20;;;12.20;99.90;;;;;;5072843;28;20448;-72
2023/03/21 12:05:27;;;;;;;8.30;5.20;;;12.00;99.90;;;;;;5057009;28;20409;-73
2023/03/21 12:08:07;;;;;;;12.47;4.80;;;11.90;99.90;;;;;;5052580;28;20743;-73
2023/03/21 12:11:14;;;;;;;11.13;5.50;;;11.80;99.90;;;;;;5052772;28;20405;-73
2023/03/21 12:13:45;;;;;;;7.10;5.30;;;11.70;99.90;;;;;;5044459;28;20804;-72
2023/03/21 12:16:40;;;;;;;7.40;5.77;;;11.60;99.90;;;;;;5052827;28;20401;-72
2023/03/21 12:19:33;;;;;;;6.47;4.43;;;11.60;99.90;;;;;;5052333;28;20448;-72
2023/03/21 12:22:23;;;;;;;12.53;6.43;;;11.70;99.90;;;;;;5052517;28;20516;-72
2023/03/21 12:24:56;;;;;;;6.53;4.93;;;11.60;99.90;;;;;;5052539;28;20439;-72
2023/03/21 12:27:30;;;;;;;11.23;5.57;;;11.60;99.90;;;;;;5052179;28;20967;-72
2023/03/21 12:30:30;;;;;;;5.67;4.60;;;11.70;99.90;;;;;;5052357;28;20397;-72
2023/03/21 12:33:23;;;;;;;9.27;5.27;;;11.80;99.90;;;;;;5052332;28;20819;-72
2023/03/21 12:36:07;;;;;;;9.90;5.83;;;12.00;99.90;;;;;;5052378;28;20389;-72
2023/03/21 12:38:42;;;;;;;9.00;6.20;;;12.20;99.90;;;;;;5051909;28;20490;-72
2023/03/21 12:41:33;;;;;;;9.63;5.23;;;12.50;99.90;;;;;;5062590;28;20411;-72
2023/03/21 12:44:03;;;;;;;7.90;4.70;;;12.80;99.90;;;;;;5032278;28;20409;-72
2023/03/21 12:46:35;;;;;;;7.97;5.50;;;13.10;99.90;;;;;;5032170;28;20490;-74
2023/03/21 12:49:08;;;;;;;6.77;4.37;;;13.40;99.90;;;;;;5031996;28;20413;-74
2023/03/21 12:51:38;;;;;;;9.47;4.63;;;13.60;99.90;;;;;;5032154;28;20781;-73
2023/03/21 12:54:13;;;;;;;10.33;5.20;;;13.80;99.90;;;;;;5032199;28;20513;-72
2023/03/21 12:56:48;;;;;;;8.40;4.13;;;13.90;99.90;;;;;;5032435;28;20911;-72
2023/03/21 12:59:36;;;;;;;6.93;5.10;;;14.10;99.90;;;;;;5031874;28;20481;-73
2023/03/21 13:02:23;;;;;;;6.93;5.67;;;14.20;99.90;;;;;;5032029;28;20426;-72